Time;durP1;ratioP1;P1;durP2;ratioP2;P2;SDS_P1;SDS_P2;PMS_P1;PMS_P2;Temp;Humidity;BMP_temperature;BMP_pressure;BME280_temperature;BME280_humidity;BME280_pressure;Samples;Min_cycle;Max_cycle;Signal;HPM_P1;HPM_P2
2021/05/03 00:03:16;;;;;;;;;;;5.30;99.90;;;;;;8360549;28;19916;-65
2021/05/03 00:07:17;;;;;;;;;;;5.30;99.90;;;;;;8364802;28;19943;-65
2021/05/03 00:11:17;;;;;;;;;;;5.30;99.90;;;;;;8364263;28;19998;-65
2021/05/03 00:15:18;;;;;;;;;;;5.30;99.90;;;;;;8364817;28;20383;-65
2021/05/03 00:19:18;;;;;;;;;;;5.20;99.90;;;;;;8364124;28;20407;-65
2021/05/03 00:23:19;;;;;;;;;;;5.10;99.90;;;;;;8363798;28;19912;-66
2021/05/03 00:27:19;;;;;;;;;;;5.00;99.90;;;;;;8364137;28;20345;-65
2021/05/03 00:31:20;;;;;;;;;;;5.00;99.90;;;;;;8363843;28;19909;-65
2021/05/03 00:35:20;;;;;;;;;;;5.00;99.90;;;;;;8363767;28;20295;-65
2021/05/03 00:39:21;;;;;;;;;;;4.90;99.90;;;;;;8363896;28;19935;-65
2021/05/03 00:43:21;;;;;;;;;;;5.00;99.90;;;;;;8363045;28;19916;-65
2021/05/03 00:47:22;;;;;;;;;;;4.70;99.90;;;;;;8363741;28;19977;-65
2021/05/03 00:51:23;;;;;;;;;;;4.70;99.90;;;;;;8363337;28;19909;-65
2021/05/03 00:55:24;;;;;;;;;;;4.50;99.90;;;;;;8363260;28;20792;-65
2021/05/03 00:59:25;;;;;;;;;;;4.60;99.90;;;;;;8362495;28;19915;-65
2021/05/03 01:03:25;;;;;;;;;;;4.60;99.90;;;;;;8361422;28;19913;-65
2021/05/03 01:07:26;;;;;;;;;;;4.50;99.90;;;;;;8363384;28;19915;-65
2021/05/03 01:11:26;;;;;;;;;;;4.30;99.90;;;;;;8362977;28;19909;-65
2021/05/03 01:15:27;;;;;;;;;;;4.20;99.90;;;;;;8361982;28;19916;-65
2021/05/03 01:19:29;;;;;;;;;;;4.30;99.90;;;;;;8361060;28;19909;-65
2021/05/03 01:23:30;;;;;;;;;;;4.30;99.90;;;;;;8361943;28;19909;-65
2021/05/03 01:27:31;;;;;;;;;;;4.10;99.90;;;;;;8362928;28;20469;-65
2021/05/03 01:31:31;;;;;;;;;;;4.20;99.90;;;;;;8362671;28;19909;-65
2021/05/03 01:35:32;;;;;;;;;;;4.00;99.90;;;;;;8361393;28;19913;-65
2021/05/03 01:39:33;;;;;;;;;;;4.10;99.90;;;;;;8362648;28;19909;-65
2021/05/03 01:43:33;;;;;;;;;;;4.10;99.90;;;;;;8361623;28;19921;-64
2021/05/03 01:47:34;;;;;;;;;;;4.10;99.90;;;;;;8361560;28;19913;-64
2021/05/03 01:51:35;;;;;;;;;;;4.10;99.90;;;;;;8361236;28;19908;-65
2021/05/03 01:55:37;;;;;;;;;;;3.90;99.90;;;;;;8360721;28;20367;-65
2021/05/03 01:59:37;;;;;;;;;;;3.80;99.90;;;;;;8361564;28;19962;-64
2021/05/03 02:03:38;;;;;;;;;;;3.80;99.90;;;;;;8360864;28;19916;-65
2021/05/03 02:07:38;;;;;;;;;;;3.80;99.90;;;;;;8361808;28;20310;-64
2021/05/03 02:11:39;;;;;;;;;;;4.10;99.90;;;;;;8361043;28;19909;-65
2021/05/03 02:15:40;;;;;;;;;;;3.90;99.90;;;;;;8359584;28;19916;-64
2021/05/03 02:19:40;;;;;;;;;;;3.70;99.90;;;;;;8359850;28;19952;-65
2021/05/03 02:23:40;;;;;;;;;;;3.60;99.90;;;;;;8359417;28;19960;-65
2021/05/03 02:27:41;;;;;;;;;;;3.50;99.90;;;;;;8360246;28;19932;-65
2021/05/03 02:31:41;;;;;;;;;;;3.50;99.90;;;;;;8360484;28;19942;-64
2021/05/03 02:35:42;;;;;;;;;;;3.60;99.90;;;;;;8360415;28;19919;-65
2021/05/03 02:39:42;;;;;;;;;;;3.50;99.90;;;;;;8360747;28;19915;-65
2021/05/03 02:43:43;;;;;;;;;;;3.50;99.90;;;;;;8358749;28;19924;-65
2021/05/03 02:47:44;;;;;;;;;;;3.40;99.90;;;;;;8360448;28;19909;-65
2021/05/03 02:51:44;;;;;;;;;;;3.50;99.90;;;;;;8359775;28;19920;-64
2021/05/03 02:55:45;;;;;;;;;;;3.50;99.90;;;;;;8358896;28;19909;-65
2021/05/03 02:59:45;;;;;;;;;;;3.50;99.90;;;;;;8359580;28;19948;-65
2021/05/03 03:03:46;;;;;;;;;;;3.40;99.90;;;;;;8358407;28;19913;-64
2021/05/03 03:07:47;;;;;;;;;;;3.40;99.90;;;;;;8359598;28;19916;-65
2021/05/03 03:11:48;;;;;;;;;;;3.60;99.90;;;;;;8359391;28;20318;-65
2021/05/03 03:15:49;;;;;;;;;;;3.60;99.90;;;;;;8359528;28;19909;-65
2021/05/03 03:19:49;;;;;;;;;;;3.50;99.90;;;;;;8357723;28;19909;-65
2021/05/03 03:23:50;;;;;;;;;;;3.40;99.90;;;;;;8340710;28;19917;-65
2021/05/03 03:27:51;;;;;;;;;;;3.20;99.90;;;;;;8349409;28;20434;-64
2021/05/03 03:31:51;;;;;;;;;;;3.60;99.90;;;;;;8359547;28;19909;-64
2021/05/03 03:35:51;;;;;;;;;;;3.80;99.90;;;;;;8352962;28;20008;-64
2021/05/03 03:39:52;;;;;;;;;;;3.90;99.90;;;;;;8331856;28;19963;-64
2021/05/03 03:43:52;;;;;;;;;;;3.80;99.90;;;;;;8332377;28;19917;-65
2021/05/03 03:47:53;;;;;;;;;;;3.90;99.90;;;;;;8333153;28;19910;-65
2021/05/03 03:51:53;;;;;;;;;;;3.70;99.90;;;;;;8332502;28;19920;-64
2021/05/03 03:55:54;;;;;;;;;;;3.50;99.90;;;;;;8332631;28;19958;-65
2021/05/03 03:59:56;;;;;;;;;;;3.40;99.90;;;;;;8333227;28;19913;-64
2021/05/03 04:04:02;;;;;;;;;;;3.30;99.90;;;;;;8351884;28;20380;-64
2021/05/03 04:08:11;;;;;;;;;;;3.30;99.90;;;;;;8332342;28;20017;-64
2021/05/03 04:29:32;;;;;;;;;;;3.30;99.90;;;;;;8319575;28;19971;-64
2021/05/03 04:33:33;;;;;;;;;;;3.30;99.90;;;;;;8354743;28;19912;-64
2021/05/03 04:37:33;;;;;;;;;;;3.70;99.90;;;;;;8361211;28;19933;-65
2021/05/03 04:41:34;;;;;;;;;;;3.80;99.90;;;;;;8332877;28;19920;-65
2021/05/03 04:45:34;;;;;;;;;;;3.80;99.90;;;;;;8330430;28;20004;-65
2021/05/03 04:49:34;;;;;;;;;;;4.80;99.90;;;;;;8328726;28;19913;-64
2021/05/03 04:53:35;;;;;;;;;;;5.60;99.90;;;;;;8362201;28;20290;-65
2021/05/03 04:57:35;;;;;;;;;;;7.00;99.90;;;;;;8363315;28;19909;-65
2021/05/03 05:01:37;;;;;;;;;;;8.00;99.90;;;;;;8359069;28;19913;-65
2021/05/03 05:05:38;;;;;;;;;;;8.00;99.90;;;;;;8330738;28;19959;-64
2021/05/03 05:09:38;;;;;;;;;;;7.70;99.90;;;;;;8345700;28;20433;-64
2021/05/03 05:13:38;;;;;;;;;;;7.40;99.90;;;;;;8341902;28;19913;-65
2021/05/03 05:17:39;;;;;;;;;;;7.20;99.90;;;;;;8345642;28;19916;-64
2021/05/03 05:21:39;;;;;;;;;;;7.60;99.90;;;;;;8357730;28;19935;-64
2021/05/03 05:25:40;;;;;;;;;;;7.80;99.90;;;;;;8349630;28;19955;-64
2021/05/03 05:29:41;;;;;;;;;;;7.70;99.90;;;;;;8361519;28;20007;-64
2021/05/03 05:33:41;;;;;;;;;;;7.30;99.90;;;;;;8361016;28;20478;-62
2021/05/03 05:37:42;;;;;;;;;;;7.00;99.90;;;;;;8360251;28;19917;-64
2021/05/03 05:41:42;;;;;;;;;;;6.90;99.90;;;;;;8344658;28;19938;-62
2021/05/03 05:45:43;;;;;;;;;;;6.80;99.90;;;;;;8343885;28;19924;-64
2021/05/03 05:49:43;;;;;;;;;;;7.10;99.90;;;;;;8351407;28;19915;-62
2021/05/03 05:53:44;;;;;;;;;;;6.90;99.90;;;;;;8347938;28;19924;-63
2021/05/03 05:57:44;;;;;;;;;;;6.80;99.90;;;;;;8326250;28;19959;-63
2021/05/03 06:01:45;;;;;;;;;;;6.60;99.90;;;;;;8345341;28;19913;-63
2021/05/03 06:05:45;;;;;;;;;;;6.50;99.90;;;;;;8365740;28;19963;-63
2021/05/03 06:09:46;;;;;;;;;;;6.70;99.90;;;;;;8346186;28;19956;-63
2021/05/03 06:13:46;;;;;;;;;;;6.80;99.90;;;;;;8361320;28;19913;-62
2021/05/03 06:17:47;;;;;;;;;;;6.80;99.90;;;;;;8360134;28;19913;-63
2021/05/03 06:21:47;;;;;;;;;;;7.00;99.90;;;;;;8359173;28;19916;-63
2021/05/03 06:25:48;;;;;;;;;;;7.10;99.90;;;;;;8347427;28;19917;-63
2021/05/03 06:29:48;;;;;;;;;;;7.20;99.90;;;;;;8344079;28;19913;-63
2021/05/03 06:33:49;;;;;;;;;;;7.20;99.90;;;;;;8330816;28;19935;-63
2021/05/03 06:37:50;;;;;;;;;;;7.40;99.90;;;;;;8342596;28;19924;-63
2021/05/03 06:41:51;;;;;;;;;;;7.70;99.90;;;;;;8327566;28;19917;-63
2021/05/03 06:45:51;;;;;;;;;;;7.60;99.90;;;;;;8337430;28;19916;-63
2021/05/03 06:49:52;;;;;;;;;;;7.70;99.90;;;;;;8326564;28;20296;-63
2021/05/03 06:53:52;;;;;;;;;;;7.70;99.90;;;;;;8325744;28;20364;-63
2021/05/03 06:57:54;;;;;;;;;;;7.70;99.90;;;;;;8355118;28;19914;-63
2021/05/03 07:01:55;;;;;;;;;;;7.70;99.90;;;;;;8347076;28;19921;-64
2021/05/03 07:05:56;;;;;;;;;;;7.70;99.90;;;;;;8358191;28;20276;-64
2021/05/03 07:09:56;;;;;;;;;;;7.60;99.90;;;;;;8336706;28;19913;-63
2021/05/03 07:13:57;;;;;;;;;;;7.60;99.90;;;;;;8358962;28;19964;-63
2021/05/03 07:17:57;;;;;;;;;;;7.90;99.90;;;;;;8346153;28;19975;-63
2021/05/03 07:21:58;;;;;;;;;;;8.20;99.90;;;;;;8325951;28;19910;-63
2021/05/03 07:25:59;;;;;;;;;;;8.40;99.90;;;;;;8325665;28;19917;-63
2021/05/03 07:29:59;;;;;;;;;;;8.50;99.90;;;;;;8349351;28;19919;-63
2021/05/03 07:34:00;;;;;;;;;;;8.50;99.90;;;;;;8349742;28;19913;-63
2021/05/03 07:38:00;;;;;;;;;;;8.50;99.90;;;;;;8326234;28;19917;-63
2021/05/03 07:42:01;;;;;;;;;;;8.60;99.90;;;;;;8325714;28;19941;-63
2021/05/03 07:46:02;;;;;;;;;;;8.60;99.90;;;;;;8325483;28;19913;-63
2021/05/03 07:50:03;;;;;;;;;;;8.40;99.90;;;;;;8357098;28;19917;-63
2021/05/03 07:54:03;;;;;;;;;;;8.50;99.90;;;;;;8358188;28;20425;-63
2021/05/03 07:58:04;;;;;;;;;;;9.00;99.90;;;;;;8358127;28;19916;-63
2021/05/03 08:02:05;;;;;;;;;;;8.90;99.90;;;;;;8346423;28;19917;-63
2021/05/03 08:06:06;;;;;;;;;;;9.10;99.90;;;;;;8329410;28;19928;-63
2021/05/03 08:10:07;;;;;;;;;;;9.30;99.90;;;;;;8328861;28;19919;-62
2021/05/03 08:14:07;;;;;;;;;;;8.90;99.90;;;;;;8325052;28;19910;-63
2021/05/03 08:18:08;;;;;;;;;;;9.00;99.90;;;;;;8325337;28;20291;-63
2021/05/03 08:22:08;;;;;;;;;;;9.00;99.90;;;;;;8330058;28;20372;-62
2021/05/03 08:26:09;;;;;;;;;;;9.50;99.90;;;;;;8330684;28;19974;-63
2021/05/03 08:30:10;;;;;;;;;;;9.70;99.90;;;;;;8330416;28;19952;-63
2021/05/03 08:34:10;;;;;;;;;;;10.10;99.90;;;;;;8360494;28;19963;-63
2021/05/03 08:38:12;;;;;;;;;;;10.40;99.90;;;;;;8336989;28;19920;-62
2021/05/03 08:42:15;;;;;;;;;;;9.80;99.90;;;;;;8334217;28;19917;-63
2021/05/03 08:46:26;;;;;;;;;;;9.40;99.90;;;;;;8350021;28;19921;-63
2021/05/03 08:50:47;;;;;;;;;;;9.70;99.90;;;;;;8363821;28;20364;-62
2021/05/03 08:54:47;;;;;;;;;;;10.00;99.90;;;;;;8350734;28;20008;-64
2021/05/03 08:58:48;;;;;;;;;;;10.70;99.90;;;;;;8351229;28;19978;-63
2021/05/03 09:02:48;;;;;;;;;;;10.90;99.90;;;;;;8349462;28;19913;-63
2021/05/03 09:07:04;;;;;;;;;;;10.70;99.90;;;;;;8349313;28;19916;-62
2021/05/03 09:11:05;;;;;;;;;;;10.70;99.90;;;;;;8371528;28;19917;-62
2021/05/03 09:15:06;;;;;;;;;;;10.90;99.90;;;;;;8346656;28;19923;-63
2021/05/03 09:19:07;;;;;;;;;;;11.10;99.90;;;;;;8362053;28;19909;-63
2021/05/03 09:23:20;;;;;;;;;;;11.30;99.90;;;;;;8349461;28;20348;-62
2021/05/03 09:27:20;;;;;;;;;;;11.30;99.90;;;;;;8351273;28;19924;-63
2021/05/03 09:31:21;;;;;;;;;;;11.00;99.90;;;;;;8357681;28;19913;-64
2021/05/03 09:35:21;;;;;;;;;;;11.70;99.90;;;;;;8340721;28;19947;-62
2021/05/03 09:39:31;;;;;;;;;;;11.70;99.90;;;;;;8346433;28;19913;-63
2021/05/03 09:43:32;;;;;;;;;;;11.60;99.90;;;;;;8341381;28;19917;-62
2021/05/03 09:47:33;;;;;;;;;;;11.00;99.90;;;;;;8350076;28;19920;-62
2021/05/03 09:51:33;;;;;;;;;;;11.60;99.90;;;;;;8348008;28;19999;-62
2021/05/03 09:55:35;;;;;;;;;;;11.90;99.90;;;;;;8353644;28;19938;-62
2021/05/03 09:59:43;;;;;;;;;;;11.60;99.90;;;;;;8360068;28;19913;-62
2021/05/03 10:03:48;;;;;;;;;;;12.20;99.90;;;;;;8359513;28;19909;-63
2021/05/03 10:07:53;;;;;;;;;;;12.30;99.90;;;;;;8356965;28;19979;-63
2021/05/03 10:11:54;;;;;;;;;;;12.00;99.90;;;;;;8339788;28;20398;-63
2021/05/03 10:15:56;;;;;;;;;;;12.50;99.90;;;;;;8352783;28;19916;-62
2021/05/03 10:19:58;;;;;;;;;;;12.30;99.90;;;;;;8328414;28;19919;-62
2021/05/03 10:23:59;;;;;;;;;;;11.90;99.90;;;;;;8324688;28;19975;-62
2021/05/03 10:27:59;;;;;;;;;;;12.20;99.90;;;;;;8342558;28;19913;-61
2021/05/03 10:32:02;;;;;;;;;;;12.30;98.20;;;;;;8353027;28;19913;-62
2021/05/03 10:36:03;;;;;;;;;;;12.70;94.90;;;;;;8358884;28;19913;-62
2021/05/03 10:40:06;;;;;;;;;;;13.10;96.20;;;;;;8356423;28;19920;-62
2021/05/03 10:44:12;;;;;;;;;;;13.20;93.30;;;;;;8359069;28;19962;-62
2021/05/03 10:48:28;;;;;;;;;;;12.70;90.40;;;;;;8357229;28;19920;-62
2021/05/03 10:52:37;;;;;;;;;;;12.50;94.40;;;;;;8348571;28;20375;-62
2021/05/03 10:56:38;;;;;;;;;;;12.30;90.30;;;;;;8347245;28;19927;-62
2021/05/03 11:00:38;;;;;;;;;;;12.20;92.00;;;;;;8355660;28;19913;-63
2021/05/03 11:04:59;;;;;;;;;;;12.30;91.00;;;;;;8332846;28;19925;-62
2021/05/03 11:09:20;;;;;;;;;;;12.90;87.20;;;;;;8354988;28;21264;-62
2021/05/03 11:13:39;;;;;;;;;;;15.10;78.20;;;;;;8343503;28;20311;-62
2021/05/03 11:17:59;;;;;;;;;;;14.60;84.70;;;;;;8352200;28;19917;-63
2021/05/03 11:22:00;;;;;;;;;;;13.00;88.80;;;;;;8350788;28;19912;-62
2021/05/03 11:26:03;;;;;;;;;;;12.00;91.80;;;;;;8357931;28;19921;-62
2021/05/03 11:30:10;;;;;;;;;;;12.10;91.90;;;;;;8347458;28;20299;-62
2021/05/03 11:34:19;;;;;;;;;;;11.60;93.70;;;;;;8345150;28;20711;-63
2021/05/03 11:46:31;;;;;;;;;;;12.00;93.50;;;;;;8357051;28;20299;-63
2021/05/03 11:50:32;;;;;;;;;;;12.20;92.80;;;;;;8353125;28;19919;-63
2021/05/03 11:54:43;;;;;;;23.10;14.10;;;16.30;84.60;;;;;;8350977;28;20399;-63
2021/05/03 11:58:44;;;;;;;;;;;21.10;58.50;;;;;;8357216;28;20021;-63
2021/05/03 12:02:46;;;;;;;;;;;22.60;47.90;;;;;;8358221;28;19913;-62
2021/05/03 12:06:46;;;;;;;;;;;19.40;46.50;;;;;;8348163;28;20427;-62
2021/05/03 12:10:47;;;;;;;;;;;18.70;53.50;;;;;;8347703;28;19905;-63
2021/05/03 12:14:48;;;;;;;;;;;20.50;51.10;;;;;;8347822;28;19905;-62
2021/05/03 12:18:49;;;;;;;;;;;17.90;52.50;;;;;;8346439;28;19912;-62
2021/05/03 12:22:55;;;;;;;;;;;16.20;56.60;;;;;;8347255;28;20004;-62
2021/05/03 12:26:57;;;;;;;;;;;14.00;64.60;;;;;;8345193;28;19920;-62
2021/05/03 12:30:58;;;;;;;;;;;13.40;68.20;;;;;;8348126;28;20401;-61
2021/05/03 12:35:04;;;;;;;;;;;13.90;63.60;;;;;;8345812;28;19988;-62
2021/05/03 12:39:08;;;;;;;;;;;16.80;62.80;;;;;;8337820;28;19909;-62
2021/05/03 12:43:08;;;;;;;;;;;16.30;55.80;;;;;;8331720;28;20008;-62
2021/05/03 12:47:16;;;;;;;;;;;14.50;63.10;;;;;;8345081;28;20267;-63
2021/05/03 12:51:27;;;;;;;;;;;14.90;63.70;;;;;;8353454;28;19917;-63
2021/05/03 12:55:32;;;;;;;;;;;17.00;56.60;;;;;;8332053;28;19912;-63
2021/05/03 12:59:49;;;;;;;;;;;16.70;57.60;;;;;;8345158;28;19916;-62
2021/05/03 13:04:25;;;;;;;;;;;15.80;58.60;;;;;;8347151;28;19932;-62
2021/05/03 13:22:28;;;;;;;;;;;15.80;59.20;;;;;;8361948;28;19909;-62
2021/05/03 13:25:37;;;;;;;;;;;14.70;60.30;;;;;;8328886;28;19920;-62
2021/05/03 13:29:47;;;;;;;;;;;14.30;62.60;;;;;;8337053;28;19916;-63
2021/05/03 13:33:48;;;;;;;;;;;15.10;62.50;;;;;;8353167;28;19915;-62
2021/05/03 13:37:48;;;;;;;;;;;20.10;49.80;;;;;;8357286;28;19915;-63
2021/05/03 13:41:50;;;;;;;;;;;22.70;46.10;;;;;;8331307;28;19923;-62
2021/05/03 13:45:50;;;;;;;;;;;22.20;45.20;;;;;;8333960;28;20010;-62
2021/05/03 13:49:50;;;;;;;;;;;21.80;43.60;;;;;;8337443;28;20380;-62
2021/05/03 13:53:52;;;;;;;;;;;22.20;43.20;;;;;;8357413;28;19955;-62
2021/05/03 13:57:52;;;;;;;;;;;23.00;42.30;;;;;;8359120;28;20405;-63
2021/05/03 14:01:53;;;;;;;;;;;23.20;39.10;;;;;;8342863;28;19909;-63
2021/05/03 14:05:53;;;;;;;;;;;26.20;38.00;;;;;;8328251;28;19963;-63
2021/05/03 14:09:54;;;;;;;;;;;26.70;37.90;;;;;;8331530;28;19916;-62
2021/05/03 14:13:54;;;;;;;;;;;27.10;34.60;;;;;;8354165;28;19927;-63
2021/05/03 14:17:55;;;;;;;;;;;27.50;34.40;;;;;;8334679;28;19999;-63
2021/05/03 14:21:55;;;;;;;;;;;25.90;35.50;;;;;;8350179;28;19945;-63
2021/05/03 14:25:56;;;;;;;;;;;26.40;35.60;;;;;;8334312;28;19917;-63
2021/05/03 14:29:59;;;;;;;;;;;28.40;33.70;;;;;;8334398;28;19915;-63
2021/05/03 14:34:21;;;;;;;;;;;26.40;32.10;;;;;;8346620;28;19909;-64
2021/05/03 14:38:22;;;;;;;;;;;25.20;33.30;;;;;;8344337;28;19958;-63
2021/05/03 14:42:23;;;;;;;;;;;24.10;34.80;;;;;;8342035;28;19920;-63
2021/05/03 14:46:34;;;;;;;;;;;24.90;34.60;;;;;;8343106;28;19962;-62
2021/05/03 14:50:53;;;;;;;;;;;24.80;34.30;;;;;;8339120;28;19915;-63
2021/05/03 14:54:54;;;;;;;;;;;20.70;39.70;;;;;;8342189;28;19952;-63
2021/05/03 14:58:54;;;;;;;;;;;20.60;40.60;;;;;;8353378;28;19908;-63
2021/05/03 15:02:55;;;;;;;;;;;20.90;40.50;;;;;;8346286;28;19913;-63
2021/05/03 15:07:01;;;;;;;;;;;22.40;37.70;;;;;;8351880;28;20337;-62
2021/05/03 15:11:01;;;;;;;;;;;21.80;38.30;;;;;;8339054;28;20376;-63
2021/05/03 15:15:13;;;;;;;;;;;21.80;36.90;;;;;;8342223;28;19909;-64
2021/05/03 15:23:46;;;;;;;;;;;24.40;34.60;;;;;;8319533;28;19915;-63
2021/05/03 15:28:07;;;;;;;;;;;25.10;33.70;;;;;;8359133;28;20259;-63
2021/05/03 15:36:27;;;;;;;;;;;23.40;35.00;;;;;;8356690;28;19954;-63
2021/05/03 15:40:27;;;;;;;;;;;22.00;38.50;;;;;;8356535;28;19909;-63
2021/05/03 15:44:29;;;;;;;;;;;20.40;39.80;;;;;;8354920;28;19917;-63
2021/05/03 15:48:29;;;;;;;;;;;19.50;40.90;;;;;;8362024;28;19999;-64
2021/05/03 15:52:30;;;;;;;;;;;20.70;40.30;;;;;;8362950;28;19915;-64
2021/05/03 15:56:31;;;;;;;;;;;21.00;38.10;;;;;;8357874;28;19905;-63
2021/05/03 16:00:32;;;;;;;;;;;20.40;41.10;;;;;;8357744;28;19912;-64
2021/05/03 16:04:33;;;;;;;;;;;21.90;38.40;;;;;;8364182;28;20330;-64
2021/05/03 16:08:34;;;;;;;;;;;23.70;35.40;;;;;;8355163;28;19909;-64
2021/05/03 16:12:34;;;;;;;;;;;24.50;34.50;;;;;;8359754;28;20311;-63
2021/05/03 16:16:35;;;;;;;;;;;23.70;35.10;;;;;;8361123;28;19913;-63
2021/05/03 16:20:37;;;;;;;;;;;20.10;40.10;;;;;;8349014;28;19948;-63
2021/05/03 16:24:38;;;;;;;;;;;21.10;39.70;;;;;;8363282;28;19917;-64
2021/05/03 16:28:38;;;;;;;;;;;22.90;36.30;;;;;;8364624;28;19911;-64
2021/05/03 16:32:40;;;;;;;;;;;23.70;35.00;;;;;;8362504;28;19959;-64
2021/05/03 16:36:41;;;;;;;;;;;23.80;33.90;;;;;;8364030;28;19904;-64
2021/05/03 16:40:41;;;;;;;;;;;23.20;36.30;;;;;;8363441;28;19991;-64
2021/05/03 16:44:42;;;;;;;;;;;22.20;37.00;;;;;;8359844;28;19912;-63
2021/05/03 16:48:43;;;;;;;;;;;21.10;39.00;;;;;;8349869;28;20306;-63
2021/05/03 16:52:43;;;;;;;;;;;19.40;41.10;;;;;;8352573;28;20383;-63
2021/05/03 16:56:44;;;;;;;;;;;18.20;42.80;;;;;;8354602;28;19971;-63
2021/05/03 17:00:45;;;;;;;;;;;18.30;42.90;;;;;;8346971;28;19924;-63
2021/05/03 17:04:45;;;;;;;;;;;20.20;41.90;;;;;;8361059;28;20005;-64
2021/05/03 17:08:45;;;;;;;;;;;21.90;39.40;;;;;;8356450;28;19913;-64
2021/05/03 17:12:46;;;;;;;;;;;24.30;36.30;;;;;;8347391;28;19959;-64
2021/05/03 17:16:48;;;;;;;;;;;25.90;34.70;;;;;;8355631;28;19915;-64
2021/05/03 17:20:49;;;;;;;;;;;25.80;33.40;;;;;;8355231;28;19915;-64
2021/05/03 17:24:49;;;;;;;;;;;24.30;36.10;;;;;;8356235;28;19920;-64
2021/05/03 17:28:50;;;;;;;;;;;22.90;35.70;;;;;;8349113;28;19924;-65
2021/05/03 17:32:51;;;;;;;;;;;19.70;39.90;;;;;;8355893;28;19935;-65
2021/05/03 17:36:51;;;;;;;;;;;18.20;44.30;;;;;;8351380;28;19939;-65
2021/05/03 17:40:52;;;;;;;;;;;16.90;45.50;;;;;;8349729;28;19908;-65
2021/05/03 17:44:52;;;;;;;;;;;15.50;49.60;;;;;;8342629;28;19923;-63
2021/05/03 17:48:53;;;;;;;;;;;15.00;50.50;;;;;;8357218;28;19908;-64
2021/05/03 17:52:53;;;;;;;;;;;14.50;53.30;;;;;;8357771;28;19932;-64
2021/05/03 17:56:54;;;;;;;;;;;14.00;53.30;;;;;;8349294;28;19909;-64
2021/05/03 18:00:54;;;;;;;;;;;13.70;54.50;;;;;;8352810;28;19952;-65
2021/05/03 18:04:55;;;;;;;;;;;13.30;56.10;;;;;;8357036;28;19917;-65
2021/05/03 18:08:55;;;;;;;;;;;13.00;55.40;;;;;;8358143;28;19913;-65
2021/05/03 18:12:56;;;;;;;;;;;12.80;57.20;;;;;;8357752;28;20438;-65
2021/05/03 18:16:58;;;;;;;;;;;12.60;56.70;;;;;;8351481;28;19909;-64
2021/05/03 18:21:07;;;;;;;;;;;12.30;58.00;;;;;;8356945;28;20391;-64
2021/05/03 18:25:08;;;;;;;;;;;11.80;58.90;;;;;;8354450;28;19935;-64
2021/05/03 18:29:10;;;;;;;;;;;11.50;61.40;;;;;;8357000;28;19908;-64
2021/05/03 18:33:10;;;;;;;;;;;11.20;64.70;;;;;;8356487;28;19966;-65
2021/05/03 18:37:11;;;;;;;;;;;10.90;67.30;;;;;;8355236;28;19904;-64
2021/05/03 18:41:12;;;;;;;;;;;10.30;70.50;;;;;;8356258;28;19962;-65
2021/05/03 18:45:14;;;;;;;;;;;10.00;73.60;;;;;;8356578;28;19919;-65
2021/05/03 18:49:19;;;;;;;;;;;9.70;76.40;;;;;;8346967;28;20004;-65
2021/05/03 18:53:19;;;;;;;;;;;9.60;80.60;;;;;;8346546;28;19919;-66
2021/05/03 18:57:20;;;;;;;;;;;9.30;81.20;;;;;;8348157;28;19913;-66
2021/05/03 19:01:23;;;;;;;;;;;9.10;82.50;;;;;;8354691;28;19909;-66
2021/05/03 19:05:23;;;;;;;;;;;9.20;85.10;;;;;;8352120;28;19916;-66
2021/05/03 19:09:24;;;;;;;;;;;9.10;84.90;;;;;;8352631;28;20306;-65
2021/05/03 19:13:24;;;;;;;;;;;9.00;90.30;;;;;;8352414;28;20291;-65
2021/05/03 19:17:25;;;;;;;;;;;9.10;93.10;;;;;;8336671;28;19912;-65
2021/05/03 19:21:26;;;;;;;;;;;8.60;93.20;;;;;;8343747;28;19924;-65
2021/05/03 19:25:26;;;;;;;;;;;8.20;96.80;;;;;;8335128;28;19921;-65
2021/05/03 19:29:27;;;;;;;;;;;7.90;99.90;;;;;;8321856;28;19909;-65
2021/05/03 19:33:27;;;;;;;;;;;8.20;99.90;;;;;;8349088;28;19992;-65
2021/05/03 19:37:28;;;;;;;;;;;7.90;99.90;;;;;;8352968;28;19916;-66
2021/05/03 19:41:28;;;;;;;;;;;7.50;99.90;;;;;;8354730;28;19923;-65
2021/05/03 19:45:29;;;;;;;;;;;7.30;99.90;;;;;;8342363;28;19923;-65
2021/05/03 20:06:54;;;;;;;;;;;6.70;99.90;;;;;;8322854;28;19919;-66
2021/05/03 20:10:55;;;;;;;;;;;6.50;99.90;;;;;;8338010;28;19917;-65
2021/05/03 20:14:55;;;;;;;;;;;6.60;99.90;;;;;;8336755;28;19924;-66
2021/05/03 20:18:56;;;;;;;;;;;6.30;99.90;;;;;;8323619;28;19917;-65
2021/05/03 20:22:57;;;;;;;;;;;6.10;99.90;;;;;;8353963;28;19912;-65
2021/05/03 20:26:57;;;;;;;;;;;6.00;99.90;;;;;;8361078;28;19950;-65
2021/05/03 20:30:59;;;;;;;;;;;5.90;99.90;;;;;;8360728;28;20283;-65
2021/05/03 20:35:11;;;;;;;;;;;5.90;99.90;;;;;;8345965;28;19928;-65
2021/05/03 20:43:27;;;;;;;;;;;5.80;99.90;;;;;;8327499;28;19916;-65
2021/05/03 20:47:27;;;;;;;;;;;5.60;99.90;;;;;;8327882;28;19909;-65
2021/05/03 20:51:28;;;;;;;;;;;5.50;99.90;;;;;;8326394;28;20639;-65
2021/05/03 20:55:29;;;;;;;;;;;5.40;99.90;;;;;;8327231;28;19909;-65
2021/05/03 20:59:30;;;;;;;;;;;5.40;99.90;;;;;;8326090;28;19913;-65
2021/05/03 21:03:31;;;;;;;;;;;5.50;99.90;;;;;;8351131;28;19954;-65
2021/05/03 21:07:31;;;;;;;;;;;5.50;99.90;;;;;;8345150;28;19917;-65
2021/05/03 21:11:33;;;;;;;;;;;5.40;99.90;;;;;;8327104;28;19909;-65
2021/05/03 21:15:33;;;;;;;;;;;5.20;99.90;;;;;;8344070;28;19909;-65
2021/05/03 21:19:34;;;;;;;;;;;5.00;99.90;;;;;;8359366;28;19909;-65
2021/05/03 21:23:34;;;;;;;;;;;5.00;99.90;;;;;;8362538;28;19942;-65
2021/05/03 21:27:34;;;;;;;;;;;4.60;99.90;;;;;;8362342;28;20367;-65
2021/05/03 21:31:35;;;;;;;;;;;4.70;99.90;;;;;;8361839;28;20047;-65
2021/05/03 21:35:35;;;;;;;;;;;4.80;99.90;;;;;;8362132;28;20378;-65
2021/05/03 21:39:36;;;;;;;;;;;4.50;99.90;;;;;;8362147;28;19948;-65
2021/05/03 21:43:37;;;;;;;;;;;4.30;99.90;;;;;;8360633;28;19940;-65
2021/05/03 21:47:37;;;;;;;;;;;4.40;99.90;;;;;;8361945;28;20371;-65
2021/05/03 21:51:38;;;;;;;;;;;4.40;99.90;;;;;;8361650;28;19952;-64
2021/05/03 21:55:38;;;;;;;;;;;4.20;99.90;;;;;;8361556;28;19905;-65
2021/05/03 21:59:39;;;;;;;;;;;4.10;99.90;;;;;;8361674;28;19911;-64
2021/05/03 22:03:40;;;;;;;;;;;4.10;99.90;;;;;;8360018;28;19961;-65
2021/05/03 22:07:40;;;;;;;;;;;4.00;99.90;;;;;;8361461;28;20421;-65
2021/05/03 22:11:41;;;;;;;;;;;3.90;99.90;;;;;;8361412;28;19908;-64
2021/05/03 22:15:46;;;;;;;;;;;3.80;99.90;;;;;;8361115;28;20002;-65
2021/05/03 22:19:56;;;;;;;;;;;3.70;99.90;;;;;;8361316;28;19905;-65
2021/05/03 22:24:09;;;;;;;;;;;3.60;99.90;;;;;;8361089;28;19913;-64
2021/05/03 22:32:14;;;;;;;;;;;3.60;99.90;;;;;;8360624;28;19905;-65
2021/05/03 22:36:43;;;;;;;;;;;3.50;99.90;;;;;;8359349;28;19905;-65
2021/05/03 22:45:48;;;;;;;;;;;3.30;99.90;;;;;;8357975;28;19916;-65
2021/05/03 23:06:53;;;;;;;;;;;3.40;99.90;;;;;;8359868;28;19916;-65
2021/05/03 23:19:44;;;;;;;;;;;3.20;99.90;;;;;;8355428;28;19915;-65
2021/05/03 23:23:45;;;;;;;;;;;3.40;99.90;;;;;;8357162;28;19951;-64
2021/05/03 23:27:47;;;;;;;;;;;3.40;99.90;;;;;;8358848;28;20299;-65
2021/05/03 23:31:47;;;;;;;;;;;3.30;99.90;;;;;;8359260;28;19926;-64
2021/05/03 23:35:48;;;;;;;;;;;3.30;99.90;;;;;;8358960;28;19911;-64
2021/05/03 23:39:49;;;;;;;;;;;3.20;99.90;;;;;;8358943;28;19912;-64
2021/05/03 23:43:49;;;;;;;;;;;2.90;99.90;;;;;;8358665;28;19912;-65
2021/05/03 23:47:50;;;;;;;;;;;2.80;99.90;;;;;;8358364;28;19966;-65
2021/05/03 23:51:50;;;;;;;;;;;3.00;99.90;;;;;;8358689;28;19912;-65
2021/05/03 23:55:51;;;;;;;;;;;3.00;99.90;;;;;;8363585;28;20351;-64
2021/05/03 23:59:51;;;;;;;;;;;2.90;99.90;;;;;;8365260;28;19916;-65
